sensor_id;sensor_type;location;lat;lon;timestamp;pressure;altitude;pressure_sealevel;temperature;humidity
17593;BME280;8915;51.760;14.300;2022-11-25T00:00:49;100786.91;;;3.12;100.00
17593;BME280;8915;51.760;14.300;2022-11-25T00:03:15;100797.22;;;3.13;100.00
17593;BME280;8915;51.760;14.300;2022-11-25T00:05:43;100790.41;;;3.18;100.00
17593;BME280;8915;51.760;14.300;2022-11-25T00:08:09;100790.41;;;3.21;100.00
17593;BME280;8915;51.760;14.300;2022-11-25T00:10:35;100782.69;;;3.25;100.00
17593;BME280;8915;51.760;14.300;2022-11-25T00:13:02;100783.53;;;3.23;100.00
17593;BME280;8915;51.760;14.300;2022-11-25T00:15:28;100779.22;;;3.21;100.00
17593;BME280;8915;51.760;14.300;2022-11-25T00:17:55;100778.38;;;3.23;100.00
17593;BME280;8915;51.760;14.300;2022-11-25T00:20:21;100789.56;;;3.24;100.00
17593;BME280;8915;51.760;14.300;2022-11-25T00:22:49;100787.00;;;3.26;100.00
17593;BME280;8915;51.760;14.300;2022-11-25T00:25:15;100786.16;;;3.28;100.00
17593;BME280;8915;51.760;14.300;2022-11-25T00:27:42;100793.03;;;3.32;100.00
17593;BME280;8915;51.760;14.300;2022-11-25T00:30:09;100790.47;;;3.35;100.00
17593;BME280;8915;51.760;14.300;2022-11-25T00:32:36;100790.50;;;3.38;100.00
17593;BME280;8915;51.760;14.300;2022-11-25T00:35:03;100791.38;;;3.40;100.00
17593;BME280;8915;51.760;14.300;2022-11-25T00:37:31;100790.53;;;3.41;100.00
17593;BME280;8915;51.760;14.300;2022-11-25T00:39:58;100782.81;;;3.41;100.00
17593;BME280;8915;51.760;14.300;2022-11-25T00:42:25;100791.38;;;3.42;100.00
17593;BME280;8915;51.760;14.300;2022-11-25T00:45:09;100798.28;;;3.43;100.00
17593;BME280;8915;51.760;14.300;2022-11-25T00:47:35;100791.41;;;3.44;100.00
17593;BME280;8915;51.760;14.300;2022-11-25T00:50:02;100799.13;;;3.44;100.00
17593;BME280;8915;51.760;14.300;2022-11-25T00:52:29;100802.56;;;3.44;100.00
17593;BME280;8915;51.760;14.300;2022-11-25T00:55:03;100807.75;;;3.46;100.00
17593;BME280;8915;51.760;14.300;2022-11-25T00:57:29;100800.84;;;3.46;100.00
17593;BME280;8915;51.760;14.300;2022-11-25T00:59:56;100812.91;;;3.47;100.00
17593;BME280;8915;51.760;14.300;2022-11-25T01:02:22;100812.91;;;3.47;100.00
17593;BME280;8915;51.760;14.300;2022-11-25T01:04:49;100804.31;;;3.47;100.00
17593;BME280;8915;51.760;14.300;2022-11-25T01:07:16;100808.56;;;3.45;100.00
17593;BME280;8915;51.760;14.300;2022-11-25T01:09:43;100808.56;;;3.45;100.00
17593;BME280;8915;51.760;14.300;2022-11-25T01:12:10;100802.53;;;3.41;100.00
17593;BME280;8915;51.760;14.300;2022-11-25T01:14:37;100807.72;;;3.39;100.00
17593;BME280;8915;51.760;14.300;2022-11-25T01:17:04;100808.56;;;3.40;100.00
17593;BME280;8915;51.760;14.300;2022-11-25T01:19:31;100811.16;;;3.40;100.00
17593;BME280;8915;51.760;14.300;2022-11-25T01:21:58;100807.69;;;3.38;100.00
17593;BME280;8915;51.760;14.300;2022-11-25T01:24:24;100801.66;;;3.36;100.00
17593;BME280;8915;51.760;14.300;2022-11-25T01:26:52;100809.41;;;3.34;100.00
17593;BME280;8915;51.760;14.300;2022-11-25T01:29:22;100811.06;;;3.32;100.00
17593;BME280;8915;51.760;14.300;2022-11-25T01:31:49;100808.53;;;3.31;100.00
17593;BME280;8915;51.760;14.300;2022-11-25T01:34:20;100810.22;;;3.30;100.00
17593;BME280;8915;51.760;14.300;2022-11-25T01:36:47;100803.38;;;3.31;100.00
17593;BME280;8915;51.760;14.300;2022-11-25T01:39:15;100795.63;;;3.31;100.00
17593;BME280;8915;51.760;14.300;2022-11-25T01:41:42;100805.03;;;3.29;100.00
17593;BME280;8915;51.760;14.300;2022-11-25T01:44:11;100811.91;;;3.28;100.00
17593;BME280;8915;51.760;14.300;2022-11-25T01:46:45;100806.72;;;3.23;100.00
17593;BME280;8915;51.760;14.300;2022-11-25T01:49:15;100810.16;;;3.22;100.00
17593;BME280;8915;51.760;14.300;2022-11-25T01:51:46;100803.25;;;3.20;100.00
17593;BME280;8915;51.760;14.300;2022-11-25T01:54:17;100798.09;;;3.15;100.00
17593;BME280;8915;51.760;14.300;2022-11-25T01:56:48;100794.63;;;3.12;100.00
17593;BME280;8915;51.760;14.300;2022-11-25T01:59:15;100802.31;;;3.07;100.00
17593;BME280;8915;51.760;14.300;2022-11-25T02:01:43;100793.72;;;3.03;100.00
17593;BME280;8915;51.760;14.300;2022-11-25T02:04:12;100803.97;;;3.00;100.00
17593;BME280;8915;51.760;14.300;2022-11-25T02:06:47;100802.28;;;2.99;100.00
17593;BME280;8915;51.760;14.300;2022-11-25T02:09:17;100809.09;;;2.93;100.00
17593;BME280;8915;51.760;14.300;2022-11-25T02:11:44;100807.31;;;2.86;100.00
17593;BME280;8915;51.760;14.300;2022-11-25T02:14:11;100807.22;;;2.78;100.00
17593;BME280;8915;51.760;14.300;2022-11-25T02:16:38;100805.47;;;2.74;100.00
17593;BME280;8915;51.760;14.300;2022-11-25T02:19:13;100807.16;;;2.69;100.00
17593;BME280;8915;51.760;14.300;2022-11-25T02:21:48;100800.22;;;2.60;100.00
17593;BME280;8915;51.760;14.300;2022-11-25T02:24:21;100799.28;;;2.50;100.00
17593;BME280;8915;51.760;14.300;2022-11-25T02:26:51;100805.16;;;2.40;100.00
17593;BME280;8915;51.760;14.300;2022-11-25T02:29:21;100798.19;;;2.30;100.00
17593;BME280;8915;51.760;14.300;2022-11-25T02:31:47;100802.34;;;2.17;100.00
17593;BME280;8915;51.760;14.300;2022-11-25T02:34:14;100794.53;;;2.09;100.00
17593;BME280;8915;51.760;14.300;2022-11-25T02:36:40;100791.88;;;2.01;100.00
17593;BME280;8915;51.760;14.300;2022-11-25T02:39:07;100796.06;;;1.90;100.00
17593;BME280;8915;51.760;14.300;2022-11-25T02:41:36;100795.09;;;1.82;100.00
17593;BME280;8915;51.760;14.300;2022-11-25T02:44:05;100790.69;;;1.73;100.00
17593;BME280;8915;51.760;14.300;2022-11-25T02:46:33;100786.31;;;1.66;100.00
17593;BME280;8915;51.760;14.300;2022-11-25T02:49:01;100795.66;;;1.59;100.00
17593;BME280;8915;51.760;14.300;2022-11-25T02:51:30;100794.78;;;1.57;100.00
17593;BME280;8915;51.760;14.300;2022-11-25T02:53:58;100789.56;;;1.52;100.00
17593;BME280;8915;51.760;14.300;2022-11-25T02:56:29;100789.50;;;1.46;100.00
17593;BME280;8915;51.760;14.300;2022-11-25T02:58:57;100788.56;;;1.41;100.00
17593;BME280;8915;51.760;14.300;2022-11-25T03:01:27;100792.78;;;1.38;100.00
17593;BME280;8915;51.760;14.300;2022-11-25T03:03:55;100793.56;;;1.33;100.00
17593;BME280;8915;51.760;14.300;2022-11-25T03:06:22;100791.78;;;1.28;100.00
17593;BME280;8915;51.760;14.300;2022-11-25T03:08:49;100797.69;;;1.22;100.00
17593;BME280;8915;51.760;14.300;2022-11-25T03:11:16;100801.91;;;1.17;100.00
17593;BME280;8915;51.760;14.300;2022-11-25T03:13:42;100799.25;;;1.12;100.00
17593;BME280;8915;51.760;14.300;2022-11-25T03:16:09;100805.13;;;1.05;100.00
17593;BME280;8915;51.760;14.300;2022-11-25T03:18:36;100807.66;;;1.01;100.00
17593;BME280;8915;51.760;14.300;2022-11-25T03:21:03;100803.22;;;0.92;100.00
17593;BME280;8915;51.760;14.300;2022-11-25T03:23:29;100801.38;;;0.83;100.00
17593;BME280;8915;51.760;14.300;2022-11-25T03:25:56;100802.16;;;0.79;100.00
17593;BME280;8915;51.760;14.300;2022-11-25T03:28:22;100804.59;;;0.71;100.00
17593;BME280;8915;51.760;14.300;2022-11-25T03:30:49;100807.91;;;0.64;100.00
17593;BME280;8915;51.760;14.300;2022-11-25T03:33:15;100805.25;;;0.60;100.00
17593;BME280;8915;51.760;14.300;2022-11-25T03:35:44;100805.97;;;0.52;100.00
17593;BME280;8915;51.760;14.300;2022-11-25T03:38:13;100817.81;;;0.44;100.00
17593;BME280;8915;51.760;14.300;2022-11-25T03:40:39;100817.69;;;0.38;100.00
17593;BME280;8915;51.760;14.300;2022-11-25T03:43:05;100821.09;;;0.37;100.00
17593;BME280;8915;51.760;14.300;2022-11-25T03:45:32;100828.81;;;0.37;100.00
17593;BME280;8915;51.760;14.300;2022-11-25T03:48:02;100827.09;;;0.37;100.00
17593;BME280;8915;51.760;14.300;2022-11-25T03:50:29;100825.44;;;0.41;100.00
17593;BME280;8915;51.760;14.300;2022-11-25T03:52:56;100826.38;;;0.45;100.00
17593;BME280;8915;51.760;14.300;2022-11-25T03:55:23;100827.28;;;0.48;100.00
17593;BME280;8915;51.760;14.300;2022-11-25T03:57:50;100825.63;;;0.50;100.00
17593;BME280;8915;51.760;14.300;2022-11-25T04:00:17;100829.97;;;0.56;100.00
17593;BME280;8915;51.760;14.300;2022-11-25T04:02:48;100826.66;;;0.60;100.00
17593;BME280;8915;51.760;14.300;2022-11-25T04:05:16;100820.72;;;0.64;100.00
17593;BME280;8915;51.760;14.300;2022-11-25T04:07:42;100825.97;;;0.69;100.00
17593;BME280;8915;51.760;14.300;2022-11-25T04:10:11;100823.41;;;0.72;100.00
17593;BME280;8915;51.760;14.300;2022-11-25T04:12:37;100824.38;;;0.77;100.00
17593;BME280;8915;51.760;14.300;2022-11-25T04:15:16;100824.44;;;0.82;100.00
17593;BME280;8915;51.760;14.300;2022-11-25T04:17:45;100830.47;;;0.84;100.00
17593;BME280;8915;51.760;14.300;2022-11-25T04:20:13;100825.44;;;0.88;100.00
17593;BME280;8915;51.760;14.300;2022-11-25T04:22:43;100831.44;;;0.90;100.00
17593;BME280;8915;51.760;14.300;2022-11-25T04:25:11;100831.53;;;0.95;100.00
17593;BME280;8915;51.760;14.300;2022-11-25T04:27:38;100834.16;;;1.00;100.00
17593;BME280;8915;51.760;14.300;2022-11-25T04:30:06;100841.91;;;1.03;100.00
17593;BME280;8915;51.760;14.300;2022-11-25T04:32:36;100842.84;;;1.06;100.00
17593;BME280;8915;51.760;14.300;2022-11-25T04:35:05;100842.00;;;1.09;100.00
17593;BME280;8915;51.760;14.300;2022-11-25T04:37:33;100846.41;;;1.15;100.00
17593;BME280;8915;51.760;14.300;2022-11-25T04:39:59;100847.31;;;1.18;100.00
17593;BME280;8915;51.760;14.300;2022-11-25T04:42:33;100841.38;;;1.22;100.00
17593;BME280;8915;51.760;14.300;2022-11-25T04:45:05;100844.03;;;1.27;100.00
17593;BME280;8915;51.760;14.300;2022-11-25T04:47:32;100842.38;;;1.33;100.00
17593;BME280;8915;51.760;14.300;2022-11-25T04:50:01;100843.44;;;1.45;100.00
17593;BME280;8915;51.760;14.300;2022-11-25T04:52:29;100836.69;;;1.51;100.00
17593;BME280;8915;51.760;14.300;2022-11-25T04:54:56;100848.78;;;1.60;100.00
17593;BME280;8915;51.760;14.300;2022-11-25T04:57:23;100847.16;;;1.65;100.00
17593;BME280;8915;51.760;14.300;2022-11-25T04:59:51;100849.78;;;1.70;100.00
17593;BME280;8915;51.760;14.300;2022-11-25T05:02:19;100849.91;;;1.78;100.00
17593;BME280;8915;51.760;14.300;2022-11-25T05:04:55;100852.50;;;1.82;100.00
17593;BME280;8915;51.760;14.300;2022-11-25T05:07:24;100854.25;;;1.83;100.00
17593;BME280;8915;51.760;14.300;2022-11-25T05:09:53;100859.41;;;1.86;100.00
17593;BME280;8915;51.760;14.300;2022-11-25T05:12:32;100853.50;;;1.92;100.00
17593;BME280;8915;51.760;14.300;2022-11-25T05:15:03;100850.97;;;1.97;100.00
17593;BME280;8915;51.760;14.300;2022-11-25T05:17:32;100855.34;;;2.01;100.00
17593;BME280;8915;51.760;14.300;2022-11-25T05:19:59;100864.78;;;2.03;100.00
17593;BME280;8915;51.760;14.300;2022-11-25T05:22:30;100859.63;;;2.02;100.00
17593;BME280;8915;51.760;14.300;2022-11-25T05:24:58;100866.53;;;2.06;100.00
17593;BME280;8915;51.760;14.300;2022-11-25T05:27:25;100858.84;;;2.09;100.00
17593;BME280;8915;51.760;14.300;2022-11-25T05:29:53;100864.91;;;2.11;100.00
17593;BME280;8915;51.760;14.300;2022-11-25T05:32:20;100862.31;;;2.10;100.00
17593;BME280;8915;51.760;14.300;2022-11-25T05:34:48;100861.47;;;2.14;100.00
17593;BME280;8915;51.760;14.300;2022-11-25T05:37:14;100870.06;;;2.16;100.00
17593;BME280;8915;51.760;14.300;2022-11-25T05:39:48;100871.81;;;2.17;100.00
17593;BME280;8915;51.760;14.300;2022-11-25T05:42:34;100870.94;;;2.18;100.00
17593;BME280;8915;51.760;14.300;2022-11-25T05:45:04;100868.44;;;2.21;100.00
17593;BME280;8915;51.760;14.300;2022-11-25T05:47:32;100867.59;;;2.22;100.00
17593;BME280;8915;51.760;14.300;2022-11-25T05:49:59;100871.03;;;2.24;100.00
17593;BME280;8915;51.760;14.300;2022-11-25T05:52:25;100868.50;;;2.25;100.00
17593;BME280;8915;51.760;14.300;2022-11-25T05:54:56;100875.31;;;2.25;100.00
17593;BME280;8915;51.760;14.300;2022-11-25T05:57:22;100878.78;;;2.25;100.00
17593;BME280;8915;51.760;14.300;2022-11-25T05:59:53;100877.09;;;2.27;100.00
17593;BME280;8915;51.760;14.300;2022-11-25T06:02:27;100873.66;;;2.28;100.00
17593;BME280;8915;51.760;14.300;2022-11-25T06:04:56;100866.81;;;2.29;100.00
17593;BME280;8915;51.760;14.300;2022-11-25T06:07:22;100867.72;;;2.33;100.00
17593;BME280;8915;51.760;14.300;2022-11-25T06:09:49;100868.59;;;2.35;100.00
17593;BME280;8915;51.760;14.300;2022-11-25T06:12:16;100869.47;;;2.37;100.00
17593;BME280;8915;51.760;14.300;2022-11-25T06:14:47;100873.81;;;2.39;100.00
17593;BME280;8915;51.760;14.300;2022-11-25T06:17:13;100876.38;;;2.39;100.00
17593;BME280;8915;51.760;14.300;2022-11-25T06:19:49;100870.38;;;2.42;100.00
17593;BME280;8915;51.760;14.300;2022-11-25T06:22:17;100872.13;;;2.43;100.00
17593;BME280;8915;51.760;14.300;2022-11-25T06:24:43;100870.41;;;2.43;100.00
17593;BME280;8915;51.760;14.300;2022-11-25T06:27:09;100875.56;;;2.45;100.00
17593;BME280;8915;51.760;14.300;2022-11-25T06:29:37;100878.97;;;2.44;100.00
17593;BME280;8915;51.760;14.300;2022-11-25T06:32:03;100878.16;;;2.45;100.00
17593;BME280;8915;51.760;14.300;2022-11-25T06:34:41;100878.16;;;2.46;100.00
17593;BME280;8915;51.760;14.300;2022-11-25T06:37:17;100881.63;;;2.49;100.00
17593;BME280;8915;51.760;14.300;2022-11-25T06:39:43;100877.31;;;2.49;100.00
17593;BME280;8915;51.760;14.300;2022-11-25T06:42:10;100884.22;;;2.50;100.00
17593;BME280;8915;51.760;14.300;2022-11-25T06:44:36;100886.78;;;2.49;100.00
17593;BME280;8915;51.760;14.300;2022-11-25T06:47:03;100885.03;;;2.49;100.00
17593;BME280;8915;51.760;14.300;2022-11-25T06:49:29;100885.03;;;2.49;100.00
17593;BME280;8915;51.760;14.300;2022-11-25T06:51:55;100879.91;;;2.51;100.00
17593;BME280;8915;51.760;14.300;2022-11-25T06:54:23;100886.81;;;2.52;100.00
17593;BME280;8915;51.760;14.300;2022-11-25T06:56:49;100885.13;;;2.54;100.00
17593;BME280;8915;51.760;14.300;2022-11-25T06:59:18;100893.69;;;2.54;100.00
17593;BME280;8915;51.760;14.300;2022-11-25T07:01:45;100888.56;;;2.56;100.00
17593;BME280;8915;51.760;14.300;2022-11-25T07:04:11;100885.13;;;2.57;100.00
17593;BME280;8915;51.760;14.300;2022-11-25T07:06:38;100885.94;;;2.53;100.00
17593;BME280;8915;51.760;14.300;2022-11-25T07:09:04;100885.13;;;2.55;100.00
17593;BME280;8915;51.760;14.300;2022-11-25T07:11:34;100891.06;;;2.50;100.00
17593;BME280;8915;51.760;14.300;2022-11-25T07:14:02;100898.63;;;2.37;100.00
17593;BME280;8915;51.760;14.300;2022-11-25T07:16:29;100904.53;;;2.27;100.00
17593;BME280;8915;51.760;14.300;2022-11-25T07:18:57;100901.03;;;2.20;100.00
17593;BME280;8915;51.760;14.300;2022-11-25T07:21:24;100891.50;;;2.13;100.00
17593;BME280;8915;51.760;14.300;2022-11-25T07:23:51;100902.53;;;2.07;100.00
17593;BME280;8915;51.760;14.300;2022-11-25T07:26:20;100903.38;;;2.03;100.00
17593;BME280;8915;51.760;14.300;2022-11-25T07:28:49;100911.91;;;2.01;100.00
17593;BME280;8915;51.760;14.300;2022-11-25T07:31:17;100922.22;;;2.02;100.00
17593;BME280;8915;51.760;14.300;2022-11-25T07:33:44;100917.13;;;2.07;100.00
17593;BME280;8915;51.760;14.300;2022-11-25T07:36:12;100924.91;;;2.12;100.00
17593;BME280;8915;51.760;14.300;2022-11-25T07:38:40;100936.09;;;2.15;100.00
17593;BME280;8915;51.760;14.300;2022-11-25T07:41:09;100935.28;;;2.19;100.00
17593;BME280;8915;51.760;14.300;2022-11-25T07:43:36;100931.91;;;2.22;100.00
17593;BME280;8915;51.760;14.300;2022-11-25T07:46:14;100932.81;;;2.25;100.00
17593;BME280;8915;51.760;14.300;2022-11-25T07:48:41;100937.13;;;2.28;100.00
17593;BME280;8915;51.760;14.300;2022-11-25T07:51:15;100937.16;;;2.30;100.00
17593;BME280;8915;51.760;14.300;2022-11-25T07:53:42;100933.72;;;2.29;100.00
17593;BME280;8915;51.760;14.300;2022-11-25T07:56:08;100929.44;;;2.30;100.00
17593;BME280;8915;51.760;14.300;2022-11-25T07:58:34;100941.41;;;2.27;100.00
17593;BME280;8915;51.760;14.300;2022-11-25T08:01:02;100944.84;;;2.28;100.00
17593;BME280;8915;51.760;14.300;2022-11-25T08:03:31;100950.88;;;2.30;100.00
17593;BME280;8915;51.760;14.300;2022-11-25T08:05:59;100944.91;;;2.33;100.00
17593;BME280;8915;51.760;14.300;2022-11-25T08:08:25;100944.97;;;2.36;100.00
17593;BME280;8915;51.760;14.300;2022-11-25T08:10:52;100945.00;;;2.40;100.00
17593;BME280;8915;51.760;14.300;2022-11-25T08:13:18;100936.44;;;2.40;100.00
17593;BME280;8915;51.760;14.300;2022-11-25T08:15:44;100938.16;;;2.39;100.00
17593;BME280;8915;51.760;14.300;2022-11-25T08:18:11;100945.88;;;2.39;100.00
17593;BME280;8915;51.760;14.300;2022-11-25T08:20:39;100946.72;;;2.40;100.00
17593;BME280;8915;51.760;14.300;2022-11-25T08:23:05;100945.03;;;2.42;100.00
17593;BME280;8915;51.760;14.300;2022-11-25T08:25:31;100950.22;;;2.45;100.00
17593;BME280;8915;51.760;14.300;2022-11-25T08:27:58;100947.66;;;2.46;100.00
17593;BME280;8915;51.760;14.300;2022-11-25T08:30:25;100948.53;;;2.49;100.00
17593;BME280;8915;51.760;14.300;2022-11-25T08:32:52;100947.69;;;2.51;100.00
17593;BME280;8915;51.760;14.300;2022-11-25T08:35:18;100947.78;;;2.56;100.00
17593;BME280;8915;51.760;14.300;2022-11-25T08:37:46;100947.81;;;2.59;100.00
17593;BME280;8915;51.760;14.300;2022-11-25T08:40:13;100949.56;;;2.63;100.00
17593;BME280;8915;51.760;14.300;2022-11-25T08:42:39;100948.72;;;2.64;100.00
17593;BME280;8915;51.760;14.300;2022-11-25T08:45:07;100953.03;;;2.65;100.00
17593;BME280;8915;51.760;14.300;2022-11-25T08:47:34;100946.16;;;2.65;100.00
17593;BME280;8915;51.760;14.300;2022-11-25T08:50:00;100942.75;;;2.67;100.00
17593;BME280;8915;51.760;14.300;2022-11-25T08:52:27;100945.34;;;2.68;100.00
17593;BME280;8915;51.760;14.300;2022-11-25T08:54:55;100941.09;;;2.73;100.00
17593;BME280;8915;51.760;14.300;2022-11-25T08:57:22;100946.28;;;2.78;100.00
17593;BME280;8915;51.760;14.300;2022-11-25T08:59:48;100954.13;;;2.86;100.00
17593;BME280;8915;51.760;14.300;2022-11-25T09:02:15;100955.97;;;2.97;100.00
17593;BME280;8915;51.760;14.300;2022-11-25T09:04:42;100955.19;;;3.09;100.00
17593;BME280;8915;51.760;14.300;2022-11-25T09:07:09;100957.88;;;3.17;100.00
17593;BME280;8915;51.760;14.300;2022-11-25T09:09:36;100957.03;;;3.21;100.00
17593;BME280;8915;51.760;14.300;2022-11-25T09:12:04;100953.66;;;3.28;100.00
17593;BME280;8915;51.760;14.300;2022-11-25T09:14:30;100964.03;;;3.36;100.00
17593;BME280;8915;51.760;14.300;2022-11-25T09:16:57;100966.69;;;3.44;100.00
17593;BME280;8915;51.760;14.300;2022-11-25T09:19:23;100966.72;;;3.50;100.00
17593;BME280;8915;51.760;14.300;2022-11-25T09:21:49;100964.28;;;3.65;100.00
17593;BME280;8915;51.760;14.300;2022-11-25T09:24:16;100968.63;;;3.68;100.00
17593;BME280;8915;51.760;14.300;2022-11-25T09:26:43;100965.19;;;3.70;100.00
17593;BME280;8915;51.760;14.300;2022-11-25T09:29:11;100972.09;;;3.74;100.00
17593;BME280;8915;51.760;14.300;2022-11-25T09:31:39;100956.69;;;3.85;100.00
17593;BME280;8915;51.760;14.300;2022-11-25T09:34:05;100964.47;;;3.90;100.00
17593;BME280;8915;51.760;14.300;2022-11-25T09:36:34;100959.34;;;3.94;100.00
17593;BME280;8915;51.760;14.300;2022-11-25T09:39:02;100959.34;;;3.99;100.00
17593;BME280;8915;51.760;14.300;2022-11-25T09:41:46;100964.59;;;4.07;100.00
17593;BME280;8915;51.760;14.300;2022-11-25T09:44:43;100956.88;;;4.14;100.00
17593;BME280;8915;51.760;14.300;2022-11-25T09:47:40;100961.22;;;4.17;100.00
17593;BME280;8915;51.760;14.300;2022-11-25T09:50:16;100959.50;;;4.21;100.00
17593;BME280;8915;51.760;14.300;2022-11-25T09:52:52;100959.53;;;4.27;100.00
17593;BME280;8915;51.760;14.300;2022-11-25T09:55:23;100963.84;;;4.29;100.00
17593;BME280;8915;51.760;14.300;2022-11-25T09:57:58;100957.84;;;4.33;100.00
17593;BME280;8915;51.760;14.300;2022-11-25T10:00:35;100966.47;;;4.37;100.00
17593;BME280;8915;51.760;14.300;2022-11-25T10:03:05;100960.44;;;4.43;100.00
17593;BME280;8915;51.760;14.300;2022-11-25T10:05:41;100958.72;;;4.45;100.00
17593;BME280;8915;51.760;14.300;2022-11-25T10:08:10;100962.22;;;4.45;100.00
17593;BME280;8915;51.760;14.300;2022-11-25T10:10:43;100961.34;;;4.48;100.00
17593;BME280;8915;51.760;14.300;2022-11-25T10:13:14;100963.09;;;4.55;100.00
17593;BME280;8915;51.760;14.300;2022-11-25T10:15:45;100957.09;;;4.59;100.00
17593;BME280;8915;51.760;14.300;2022-11-25T10:18:18;100961.41;;;4.63;100.00
17593;BME280;8915;51.760;14.300;2022-11-25T10:20:48;100956.28;;;4.68;100.00
17593;BME280;8915;51.760;14.300;2022-11-25T10:23:21;100957.97;;;4.67;100.00
17593;BME280;8915;51.760;14.300;2022-11-25T10:25:51;100963.16;;;4.73;100.00
17593;BME280;8915;51.760;14.300;2022-11-25T10:28:19;100953.72;;;4.77;100.00
17593;BME280;8915;51.760;14.300;2022-11-25T10:30:54;100958.03;;;4.83;100.00
17593;BME280;8915;51.760;14.300;2022-11-25T10:33:26;100955.44;;;4.89;100.00
17593;BME280;8915;51.760;14.300;2022-11-25T10:35:56;100945.97;;;4.94;100.00
17593;BME280;8915;51.760;14.300;2022-11-25T10:38:28;100946.84;;;4.98;100.00
17593;BME280;8915;51.760;14.300;2022-11-25T10:40:55;100946.84;;;4.99;100.00
17593;BME280;8915;51.760;14.300;2022-11-25T10:43:22;100934.81;;;5.03;100.00
17593;BME280;8915;51.760;14.300;2022-11-25T10:45:57;100931.38;;;5.04;100.00
17593;BME280;8915;51.760;14.300;2022-11-25T10:48:43;100938.25;;;5.09;100.00
17593;BME280;8915;51.760;14.300;2022-11-25T10:51:25;100928.78;;;5.15;100.00
17593;BME280;8915;51.760;14.300;2022-11-25T10:54:11;100927.06;;;5.20;100.00
17593;BME280;8915;51.760;14.300;2022-11-25T10:56:44;100934.81;;;5.27;100.00
17593;BME280;8915;51.760;14.300;2022-11-25T10:59:12;100937.44;;;5.34;100.00
17593;BME280;8915;51.760;14.300;2022-11-25T11:01:41;100932.25;;;5.35;100.00
17593;BME280;8915;51.760;14.300;2022-11-25T11:04:11;100930.53;;;5.32;100.00
17593;BME280;8915;51.760;14.300;2022-11-25T11:06:40;100938.28;;;5.36;100.00
17593;BME280;8915;51.760;14.300;2022-11-25T11:09:29;100940.88;;;5.43;100.00
17593;BME280;8915;51.760;14.300;2022-11-25T11:11:56;100939.13;;;5.47;100.00
17593;BME280;8915;51.760;14.300;2022-11-25T11:14:23;100943.44;;;5.57;100.00
17593;BME280;8915;51.760;14.300;2022-11-25T11:16:56;100939.13;;;5.62;100.00
17593;BME280;8915;51.760;14.300;2022-11-25T11:19:24;100936.56;;;5.67;100.00
17593;BME280;8915;51.760;14.300;2022-11-25T11:21:54;100934.84;;;5.75;100.00
17593;BME280;8915;51.760;14.300;2022-11-25T11:24:27;100935.66;;;5.80;100.00
17593;BME280;8915;51.760;14.300;2022-11-25T11:27:05;100940.00;;;5.86;100.00
17593;BME280;8915;51.760;14.300;2022-11-25T11:29:32;100938.22;;;5.94;100.00
17593;BME280;8915;51.760;14.300;2022-11-25T11:32:02;100937.41;;;5.97;100.00
17593;BME280;8915;51.760;14.300;2022-11-25T11:34:45;100936.53;;;6.01;100.00
17593;BME280;8915;51.760;14.300;2022-11-25T11:37:29;100937.38;;;6.09;100.00
17593;BME280;8915;51.760;14.300;2022-11-25T11:40:16;100940.81;;;6.11;100.00
17593;BME280;8915;51.760;14.300;2022-11-25T11:42:54;100941.69;;;6.15;100.00
17593;BME280;8915;51.760;14.300;2022-11-25T11:45:37;100932.16;;;6.15;100.00
17593;BME280;8915;51.760;14.300;2022-11-25T11:48:20;100933.03;;;6.17;100.00
17593;BME280;8915;51.760;14.300;2022-11-25T11:50:55;100933.91;;;6.16;100.00
17593;BME280;8915;51.760;14.300;2022-11-25T11:53:28;100934.75;;;6.18;100.00
17593;BME280;8915;51.760;14.300;2022-11-25T11:56:01;100925.25;;;6.23;100.00
17593;BME280;8915;51.760;14.300;2022-11-25T11:58:41;100929.53;;;6.32;100.00
17593;BME280;8915;51.760;14.300;2022-11-25T12:01:24;100929.53;;;6.35;100.00
17593;BME280;8915;51.760;14.300;2022-11-25T12:03:59;100932.97;;;6.34;100.00
17593;BME280;8915;51.760;14.300;2022-11-25T12:06:30;100932.97;;;6.33;100.00
17593;BME280;8915;51.760;14.300;2022-11-25T12:09:01;100930.38;;;6.33;100.00
17593;BME280;8915;51.760;14.300;2022-11-25T12:11:33;100939.00;;;6.38;100.00
17593;BME280;8915;51.760;14.300;2022-11-25T12:14:03;100933.81;;;6.41;100.00
17593;BME280;8915;51.760;14.300;2022-11-25T12:16:37;100938.16;;;6.39;100.00
17593;BME280;8915;51.760;14.300;2022-11-25T12:19:12;100932.09;;;6.40;100.00
17593;BME280;8915;51.760;14.300;2022-11-25T12:21:45;100932.13;;;6.34;100.00
17593;BME280;8915;51.760;14.300;2022-11-25T12:24:20;100939.88;;;6.35;100.00
17593;BME280;8915;51.760;14.300;2022-11-25T12:26:57;100927.78;;;6.34;100.00
17593;BME280;8915;51.760;14.300;2022-11-25T12:29:32;100940.75;;;6.33;100.00
17593;BME280;8915;51.760;14.300;2022-11-25T12:32:10;100932.13;;;6.32;100.00
17593;BME280;8915;51.760;14.300;2022-11-25T12:34:50;100937.31;;;6.35;100.00
17593;BME280;8915;51.760;14.300;2022-11-25T12:37:27;100927.78;;;6.36;100.00
17593;BME280;8915;51.760;14.300;2022-11-25T12:39:59;100925.22;;;6.37;100.00
17593;BME280;8915;51.760;14.300;2022-11-25T12:42:29;100926.94;;;6.32;100.00
17593;BME280;8915;51.760;14.300;2022-11-25T12:45:02;100926.94;;;6.29;100.00
17593;BME280;8915;51.760;14.300;2022-11-25T12:47:31;100929.56;;;6.24;100.00
17593;BME280;8915;51.760;14.300;2022-11-25T12:49:59;100925.25;;;6.19;100.00
17593;BME280;8915;51.760;14.300;2022-11-25T12:52:39;100930.47;;;6.13;100.00
17593;BME280;8915;51.760;14.300;2022-11-25T12:55:12;100934.78;;;6.04;100.00
17593;BME280;8915;51.760;14.300;2022-11-25T12:58:07;100930.50;;;5.96;100.00
17593;BME280;8915;51.760;14.300;2022-11-25T13:00:55;100928.75;;;5.88;100.00
17593;BME280;8915;51.760;14.300;2022-11-25T13:03:48;100935.66;;;5.83;100.00